sensor_id;sensor_type;location;lat;lon;timestamp;P1;durP1;ratioP1;P2;durP2;ratioP2
79664;SDS011;69132;44.014;20.918;2023-05-10T00:01:42;8.05;;;6.68;;
79664;SDS011;69132;44.014;20.918;2023-05-10T00:04:09;8.20;;;6.70;;
79664;SDS011;69132;44.014;20.918;2023-05-10T00:06:35;9.18;;;6.05;;
79664;SDS011;69132;44.014;20.918;2023-05-10T00:09:01;8.35;;;6.60;;
79664;SDS011;69132;44.014;20.918;2023-05-10T00:11:28;7.93;;;4.82;;
79664;SDS011;69132;44.014;20.918;2023-05-10T00:13:55;5.50;;;5.00;;
79664;SDS011;69132;44.014;20.918;2023-05-10T00:16:21;5.70;;;4.78;;
79664;SDS011;69132;44.014;20.918;2023-05-10T00:18:47;5.38;;;4.72;;
79664;SDS011;69132;44.014;20.918;2023-05-10T00:21:13;6.45;;;4.70;;
79664;SDS011;69132;44.014;20.918;2023-05-10T00:23:39;7.22;;;5.32;;
79664;SDS011;69132;44.014;20.918;2023-05-10T00:26:05;6.85;;;4.93;;
79664;SDS011;69132;44.014;20.918;2023-05-10T00:28:33;6.15;;;4.70;;
79664;SDS011;69132;44.014;20.918;2023-05-10T00:30:59;6.18;;;4.78;;
79664;SDS011;69132;44.014;20.918;2023-05-10T00:33:25;5.28;;;4.60;;
79664;SDS011;69132;44.014;20.918;2023-05-10T00:35:51;6.60;;;4.65;;
79664;SDS011;69132;44.014;20.918;2023-05-10T00:38:18;6.68;;;5.00;;
79664;SDS011;69132;44.014;20.918;2023-05-10T00:40:44;5.05;;;4.13;;
79664;SDS011;69132;44.014;20.918;2023-05-10T00:43:10;4.25;;;3.80;;
79664;SDS011;69132;44.014;20.918;2023-05-10T00:45:36;4.75;;;3.92;;
79664;SDS011;69132;44.014;20.918;2023-05-10T00:48:03;5.22;;;4.72;;
79664;SDS011;69132;44.014;20.918;2023-05-10T00:50:30;4.15;;;3.67;;
79664;SDS011;69132;44.014;20.918;2023-05-10T00:52:57;6.28;;;4.07;;
79664;SDS011;69132;44.014;20.918;2023-05-10T00:55:23;5.45;;;3.90;;
79664;SDS011;69132;44.014;20.918;2023-05-10T00:57:49;4.32;;;3.90;;
79664;SDS011;69132;44.014;20.918;2023-05-10T01:00:16;4.40;;;4.00;;
79664;SDS011;69132;44.014;20.918;2023-05-10T01:02:44;4.28;;;3.88;;
79664;SDS011;69132;44.014;20.918;2023-05-10T01:05:11;3.72;;;3.42;;
79664;SDS011;69132;44.014;20.918;2023-05-10T01:07:37;5.22;;;3.58;;
79664;SDS011;69132;44.014;20.918;2023-05-10T01:10:04;4.72;;;3.60;;
79664;SDS011;69132;44.014;20.918;2023-05-10T01:12:33;6.10;;;3.63;;
79664;SDS011;69132;44.014;20.918;2023-05-10T01:15:01;4.43;;;4.03;;
79664;SDS011;69132;44.014;20.918;2023-05-10T01:17:28;5.57;;;3.90;;
79664;SDS011;69132;44.014;20.918;2023-05-10T01:19:54;5.78;;;3.53;;
79664;SDS011;69132;44.014;20.918;2023-05-10T01:32:43;5.60;;;4.95;;
79664;SDS011;69132;44.014;20.918;2023-05-10T01:35:26;7.43;;;4.28;;
79664;SDS011;69132;44.014;20.918;2023-05-10T01:43:00;6.10;;;3.67;;
79664;SDS011;69132;44.014;20.918;2023-05-10T01:45:28;5.15;;;4.00;;
79664;SDS011;69132;44.014;20.918;2023-05-10T01:48:06;5.18;;;4.32;;
79664;SDS011;69132;44.014;20.918;2023-05-10T01:50:34;5.40;;;3.38;;
79664;SDS011;69132;44.014;20.918;2023-05-10T01:53:01;5.40;;;3.65;;
79664;SDS011;69132;44.014;20.918;2023-05-10T01:55:32;6.70;;;3.58;;
79664;SDS011;69132;44.014;20.918;2023-05-10T01:58:21;7.95;;;3.92;;
79664;SDS011;69132;44.014;20.918;2023-05-10T02:00:46;4.28;;;3.83;;
79664;SDS011;69132;44.014;20.918;2023-05-10T02:03:13;4.35;;;3.95;;
79664;SDS011;69132;44.014;20.918;2023-05-10T02:05:40;4.18;;;3.78;;
79664;SDS011;69132;44.014;20.918;2023-05-10T02:08:07;4.10;;;3.70;;
79664;SDS011;69132;44.014;20.918;2023-05-10T02:10:36;4.97;;;3.50;;
79664;SDS011;69132;44.014;20.918;2023-05-10T02:13:05;5.28;;;3.80;;
79664;SDS011;69132;44.014;20.918;2023-05-10T02:15:31;6.27;;;3.63;;
79664;SDS011;69132;44.014;20.918;2023-05-10T02:17:58;6.53;;;4.00;;
79664;SDS011;69132;44.014;20.918;2023-05-10T02:20:25;5.10;;;3.42;;
79664;SDS011;69132;44.014;20.918;2023-05-10T02:22:54;4.28;;;3.70;;
79664;SDS011;69132;44.014;20.918;2023-05-10T02:25:21;4.27;;;3.63;;
79664;SDS011;69132;44.014;20.918;2023-05-10T02:27:50;4.18;;;3.78;;
79664;SDS011;69132;44.014;20.918;2023-05-10T02:30:17;4.47;;;3.90;;
79664;SDS011;69132;44.014;20.918;2023-05-10T02:32:44;5.85;;;3.97;;
79664;SDS011;69132;44.014;20.918;2023-05-10T02:35:11;4.65;;;4.25;;
79664;SDS011;69132;44.014;20.918;2023-05-10T02:37:38;4.43;;;3.65;;
79664;SDS011;69132;44.014;20.918;2023-05-10T02:40:05;4.72;;;3.47;;
79664;SDS011;69132;44.014;20.918;2023-05-10T02:42:32;4.93;;;3.45;;
79664;SDS011;69132;44.014;20.918;2023-05-10T02:45:01;4.32;;;3.80;;
79664;SDS011;69132;44.014;20.918;2023-05-10T02:47:28;5.13;;;4.25;;
79664;SDS011;69132;44.014;20.918;2023-05-10T02:49:54;6.78;;;3.50;;
79664;SDS011;69132;44.014;20.918;2023-05-10T02:52:25;4.00;;;3.60;;
79664;SDS011;69132;44.014;20.918;2023-05-10T02:54:52;4.13;;;3.72;;
79664;SDS011;69132;44.014;20.918;2023-05-10T02:57:22;4.03;;;3.72;;
79664;SDS011;69132;44.014;20.918;2023-05-10T02:59:50;3.85;;;3.45;;
79664;SDS011;69132;44.014;20.918;2023-05-10T03:02:16;4.32;;;3.70;;
79664;SDS011;69132;44.014;20.918;2023-05-10T03:04:43;4.57;;;4.18;;
79664;SDS011;69132;44.014;20.918;2023-05-10T03:07:09;5.38;;;3.65;;
79664;SDS011;69132;44.014;20.918;2023-05-10T03:09:35;5.63;;;4.05;;
79664;SDS011;69132;44.014;20.918;2023-05-10T03:12:07;4.97;;;4.47;;
79664;SDS011;69132;44.014;20.918;2023-05-10T03:19:34;6.60;;;4.60;;
79664;SDS011;69132;44.014;20.918;2023-05-10T03:22:03;4.22;;;3.83;;
79664;SDS011;69132;44.014;20.918;2023-05-10T03:24:30;4.95;;;4.40;;
79664;SDS011;69132;44.014;20.918;2023-05-10T03:26:58;7.78;;;4.82;;
79664;SDS011;69132;44.014;20.918;2023-05-10T03:29:28;5.13;;;4.43;;
79664;SDS011;69132;44.014;20.918;2023-05-10T03:31:57;4.20;;;3.90;;
79664;SDS011;69132;44.014;20.918;2023-05-10T03:34:24;4.53;;;4.10;;
79664;SDS011;69132;44.014;20.918;2023-05-10T03:36:50;4.40;;;4.00;;
79664;SDS011;69132;44.014;20.918;2023-05-10T03:39:17;5.05;;;3.92;;
79664;SDS011;69132;44.014;20.918;2023-05-10T03:41:44;4.47;;;4.07;;
79664;SDS011;69132;44.014;20.918;2023-05-10T03:44:10;4.75;;;4.00;;
79664;SDS011;69132;44.014;20.918;2023-05-10T03:46:36;4.88;;;4.07;;
79664;SDS011;69132;44.014;20.918;2023-05-10T03:49:02;4.75;;;3.78;;
79664;SDS011;69132;44.014;20.918;2023-05-10T03:51:28;4.47;;;4.03;;
79664;SDS011;69132;44.014;20.918;2023-05-10T03:53:56;4.40;;;4.00;;
79664;SDS011;69132;44.014;20.918;2023-05-10T03:56:22;4.45;;;4.05;;
79664;SDS011;69132;44.014;20.918;2023-05-10T03:58:48;4.65;;;4.25;;
79664;SDS011;69132;44.014;20.918;2023-05-10T04:01:15;4.78;;;4.03;;
79664;SDS011;69132;44.014;20.918;2023-05-10T04:03:41;4.57;;;4.18;;
79664;SDS011;69132;44.014;20.918;2023-05-10T04:06:07;5.28;;;4.43;;
79664;SDS011;69132;44.014;20.918;2023-05-10T04:08:36;8.38;;;4.63;;
79664;SDS011;69132;44.014;20.918;2023-05-10T04:13:33;5.80;;;4.38;;
79664;SDS011;69132;44.014;20.918;2023-05-10T04:15:59;5.10;;;4.28;;
79664;SDS011;69132;44.014;20.918;2023-05-10T04:18:25;4.57;;;4.15;;
79664;SDS011;69132;44.014;20.918;2023-05-10T04:20:51;5.30;;;4.80;;
79664;SDS011;69132;44.014;20.918;2023-05-10T04:23:19;5.45;;;4.43;;
79664;SDS011;69132;44.014;20.918;2023-05-10T04:25:45;4.82;;;4.32;;
79664;SDS011;69132;44.014;20.918;2023-05-10T04:28:12;4.90;;;4.45;;
79664;SDS011;69132;44.014;20.918;2023-05-10T04:30:38;7.03;;;4.40;;
79664;SDS011;69132;44.014;20.918;2023-05-10T04:33:05;6.53;;;5.10;;
79664;SDS011;69132;44.014;20.918;2023-05-10T04:35:32;6.78;;;4.60;;
79664;SDS011;69132;44.014;20.918;2023-05-10T04:37:59;7.60;;;5.10;;
79664;SDS011;69132;44.014;20.918;2023-05-10T04:40:25;8.40;;;5.00;;
79664;SDS011;69132;44.014;20.918;2023-05-10T04:42:52;5.32;;;4.82;;
79664;SDS011;69132;44.014;20.918;2023-05-10T04:45:19;5.53;;;5.03;;
79664;SDS011;69132;44.014;20.918;2023-05-10T04:47:45;7.25;;;4.97;;
79664;SDS011;69132;44.014;20.918;2023-05-10T04:50:11;10.82;;;5.85;;
79664;SDS011;69132;44.014;20.918;2023-05-10T04:52:37;8.18;;;5.20;;
79664;SDS011;69132;44.014;20.918;2023-05-10T04:55:03;6.50;;;4.97;;
79664;SDS011;69132;44.014;20.918;2023-05-10T04:57:30;6.80;;;5.35;;
79664;SDS011;69132;44.014;20.918;2023-05-10T04:59:56;6.70;;;5.00;;
79664;SDS011;69132;44.014;20.918;2023-05-10T05:02:23;6.20;;;5.60;;
79664;SDS011;69132;44.014;20.918;2023-05-10T05:04:49;7.13;;;5.47;;
79664;SDS011;69132;44.014;20.918;2023-05-10T05:07:16;7.45;;;5.63;;
79664;SDS011;69132;44.014;20.918;2023-05-10T05:09:42;5.50;;;5.00;;
79664;SDS011;69132;44.014;20.918;2023-05-10T05:12:11;6.78;;;5.20;;
79664;SDS011;69132;44.014;20.918;2023-05-10T05:14:39;6.78;;;5.10;;
79664;SDS011;69132;44.014;20.918;2023-05-10T05:17:05;6.10;;;5.50;;
79664;SDS011;69132;44.014;20.918;2023-05-10T05:19:31;7.18;;;5.78;;
79664;SDS011;69132;44.014;20.918;2023-05-10T05:21:58;6.65;;;5.70;;
79664;SDS011;69132;44.014;20.918;2023-05-10T05:24:34;6.35;;;5.03;;
79664;SDS011;69132;44.014;20.918;2023-05-10T05:27:02;6.25;;;5.63;;
79664;SDS011;69132;44.014;20.918;2023-05-10T05:29:29;6.22;;;5.63;;
79664;SDS011;69132;44.014;20.918;2023-05-10T05:31:55;6.40;;;5.80;;
79664;SDS011;69132;44.014;20.918;2023-05-10T05:34:22;5.95;;;5.30;;
79664;SDS011;69132;44.014;20.918;2023-05-10T05:36:49;8.23;;;5.97;;
79664;SDS011;69132;44.014;20.918;2023-05-10T05:39:15;8.18;;;6.47;;
79664;SDS011;69132;44.014;20.918;2023-05-10T05:41:41;9.75;;;6.68;;
79664;SDS011;69132;44.014;20.918;2023-05-10T05:44:11;6.13;;;5.40;;
79664;SDS011;69132;44.014;20.918;2023-05-10T05:46:37;10.68;;;6.15;;
79664;SDS011;69132;44.014;20.918;2023-05-10T05:49:03;16.20;;;11.07;;
79664;SDS011;69132;44.014;20.918;2023-05-10T05:51:30;7.50;;;5.55;;
79664;SDS011;69132;44.014;20.918;2023-05-10T05:53:56;9.27;;;6.47;;
79664;SDS011;69132;44.014;20.918;2023-05-10T05:56:25;9.80;;;7.00;;
79664;SDS011;69132;44.014;20.918;2023-05-10T05:58:51;13.43;;;8.82;;
79664;SDS011;69132;44.014;20.918;2023-05-10T06:01:17;11.20;;;8.45;;
79664;SDS011;69132;44.014;20.918;2023-05-10T06:03:43;14.23;;;11.10;;
79664;SDS011;69132;44.014;20.918;2023-05-10T06:06:10;11.57;;;8.95;;
79664;SDS011;69132;44.014;20.918;2023-05-10T06:08:37;7.95;;;6.45;;
79664;SDS011;69132;44.014;20.918;2023-05-10T06:11:03;13.00;;;8.75;;
79664;SDS011;69132;44.014;20.918;2023-05-10T06:13:29;11.77;;;9.70;;
79664;SDS011;69132;44.014;20.918;2023-05-10T06:15:57;7.35;;;5.80;;
79664;SDS011;69132;44.014;20.918;2023-05-10T06:18:23;5.70;;;5.07;;
79664;SDS011;69132;44.014;20.918;2023-05-10T06:20:49;5.10;;;4.60;;
79664;SDS011;69132;44.014;20.918;2023-05-10T06:23:16;4.80;;;4.35;;
79664;SDS011;69132;44.014;20.918;2023-05-10T06:25:43;6.43;;;5.32;;
79664;SDS011;69132;44.014;20.918;2023-05-10T06:28:09;7.22;;;3.95;;
79664;SDS011;69132;44.014;20.918;2023-05-10T06:30:35;5.10;;;4.60;;
79664;SDS011;69132;44.014;20.918;2023-05-10T06:33:02;4.07;;;3.67;;
79664;SDS011;69132;44.014;20.918;2023-05-10T06:35:28;4.45;;;3.65;;
79664;SDS011;69132;44.014;20.918;2023-05-10T06:37:54;6.10;;;4.47;;
79664;SDS011;69132;44.014;20.918;2023-05-10T06:40:20;4.85;;;4.35;;
79664;SDS011;69132;44.014;20.918;2023-05-10T06:42:47;3.88;;;3.50;;
79664;SDS011;69132;44.014;20.918;2023-05-10T06:45:14;5.45;;;3.83;;
79664;SDS011;69132;44.014;20.918;2023-05-10T06:47:40;4.60;;;4.20;;
79664;SDS011;69132;44.014;20.918;2023-05-10T06:50:10;4.40;;;3.50;;
79664;SDS011;69132;44.014;20.918;2023-05-10T06:52:36;4.25;;;3.85;;
79664;SDS011;69132;44.014;20.918;2023-05-10T06:55:03;3.30;;;3.00;;
79664;SDS011;69132;44.014;20.918;2023-05-10T06:57:29;3.65;;;3.03;;
79664;SDS011;69132;44.014;20.918;2023-05-10T06:59:57;3.33;;;3.03;;
79664;SDS011;69132;44.014;20.918;2023-05-10T07:02:24;3.45;;;3.15;;
79664;SDS011;69132;44.014;20.918;2023-05-10T07:04:50;3.20;;;2.90;;
79664;SDS011;69132;44.014;20.918;2023-05-10T07:07:17;2.92;;;2.63;;
79664;SDS011;69132;44.014;20.918;2023-05-10T07:09:43;4.00;;;3.22;;
79664;SDS011;69132;44.014;20.918;2023-05-10T07:12:10;5.55;;;4.07;;
79664;SDS011;69132;44.014;20.918;2023-05-10T07:14:36;5.45;;;3.30;;
79664;SDS011;69132;44.014;20.918;2023-05-10T07:17:05;3.45;;;2.92;;
79664;SDS011;69132;44.014;20.918;2023-05-10T07:19:31;3.42;;;3.10;;
79664;SDS011;69132;44.014;20.918;2023-05-10T07:21:57;2.95;;;2.70;;
79664;SDS011;69132;44.014;20.918;2023-05-10T07:24:24;2.88;;;2.58;;
79664;SDS011;69132;44.014;20.918;2023-05-10T07:26:50;3.72;;;2.60;;
79664;SDS011;69132;44.014;20.918;2023-05-10T07:29:17;3.97;;;3.00;;
79664;SDS011;69132;44.014;20.918;2023-05-10T07:31:46;2.85;;;2.65;;
79664;SDS011;69132;44.014;20.918;2023-05-10T07:34:14;4.55;;;3.30;;
79664;SDS011;69132;44.014;20.918;2023-05-10T07:36:43;3.58;;;3.28;;
79664;SDS011;69132;44.014;20.918;2023-05-10T07:39:09;4.75;;;4.13;;
79664;SDS011;69132;44.014;20.918;2023-05-10T07:41:35;4.40;;;4.00;;
79664;SDS011;69132;44.014;20.918;2023-05-10T07:44:03;3.55;;;2.72;;
79664;SDS011;69132;44.014;20.918;2023-05-10T07:46:32;3.38;;;2.45;;
79664;SDS011;69132;44.014;20.918;2023-05-10T07:48:59;2.75;;;2.40;;
79664;SDS011;69132;44.014;20.918;2023-05-10T07:51:25;13.25;;;7.32;;
79664;SDS011;69132;44.014;20.918;2023-05-10T07:53:51;5.53;;;4.35;;
79664;SDS011;69132;44.014;20.918;2023-05-10T07:56:23;3.58;;;2.80;;
79664;SDS011;69132;44.014;20.918;2023-05-10T07:58:53;4.25;;;3.03;;
79664;SDS011;69132;44.014;20.918;2023-05-10T08:01:22;5.80;;;3.22;;
79664;SDS011;69132;44.014;20.918;2023-05-10T08:03:48;2.58;;;2.38;;
79664;SDS011;69132;44.014;20.918;2023-05-10T08:06:16;3.47;;;3.15;;
79664;SDS011;69132;44.014;20.918;2023-05-10T08:08:43;3.53;;;3.22;;
79664;SDS011;69132;44.014;20.918;2023-05-10T08:11:10;3.63;;;2.97;;
79664;SDS011;69132;44.014;20.918;2023-05-10T08:13:37;2.88;;;2.53;;
79664;SDS011;69132;44.014;20.918;2023-05-10T08:16:03;4.45;;;3.42;;
79664;SDS011;69132;44.014;20.918;2023-05-10T08:18:30;3.17;;;2.80;;
79664;SDS011;69132;44.014;20.918;2023-05-10T08:20:56;6.85;;;4.05;;
79664;SDS011;69132;44.014;20.918;2023-05-10T08:23:22;4.03;;;2.78;;
79664;SDS011;69132;44.014;20.918;2023-05-10T08:25:48;3.53;;;3.22;;
79664;SDS011;69132;44.014;20.918;2023-05-10T08:28:14;2.58;;;2.38;;
79664;SDS011;69132;44.014;20.918;2023-05-10T08:30:40;2.78;;;2.55;;
79664;SDS011;69132;44.014;20.918;2023-05-10T08:33:06;2.35;;;2.03;;
79664;SDS011;69132;44.014;20.918;2023-05-10T08:35:33;3.88;;;2.80;;
79664;SDS011;69132;44.014;20.918;2023-05-10T08:38:00;4.38;;;2.78;;
79664;SDS011;69132;44.014;20.918;2023-05-10T08:40:26;3.25;;;2.63;;
79664;SDS011;69132;44.014;20.918;2023-05-10T08:43:02;2.38;;;2.05;;
79664;SDS011;69132;44.014;20.918;2023-05-10T08:45:31;2.88;;;2.33;;
79664;SDS011;69132;44.014;20.918;2023-05-10T08:47:59;2.67;;;2.40;;
79664;SDS011;69132;44.014;20.918;2023-05-10T08:50:25;2.20;;;2.00;;
79664;SDS011;69132;44.014;20.918;2023-05-10T08:52:53;2.95;;;2.30;;
79664;SDS011;69132;44.014;20.918;2023-05-10T08:55:21;3.35;;;3.05;;
79664;SDS011;69132;44.014;20.918;2023-05-10T08:57:48;2.15;;;1.95;;
79664;SDS011;69132;44.014;20.918;2023-05-10T09:00:17;3.53;;;2.53;;
79664;SDS011;69132;44.014;20.918;2023-05-10T09:02:44;3.25;;;2.40;;
79664;SDS011;69132;44.014;20.918;2023-05-10T09:05:13;2.47;;;2.28;;
79664;SDS011;69132;44.014;20.918;2023-05-10T09:07:41;3.63;;;2.30;;
79664;SDS011;69132;44.014;20.918;2023-05-10T09:10:07;3.88;;;2.90;;
79664;SDS011;69132;44.014;20.918;2023-05-10T09:12:34;2.70;;;2.45;;
79664;SDS011;69132;44.014;20.918;2023-05-10T09:15:04;3.67;;;2.30;;
79664;SDS011;69132;44.014;20.918;2023-05-10T09:17:32;2.30;;;2.10;;
79664;SDS011;69132;44.014;20.918;2023-05-10T09:20:03;2.00;;;1.90;;
79664;SDS011;69132;44.014;20.918;2023-05-10T09:22:31;4.10;;;2.70;;
79664;SDS011;69132;44.014;20.918;2023-05-10T09:27:33;3.15;;;2.60;;
79664;SDS011;69132;44.014;20.918;2023-05-10T09:29:59;4.93;;;3.10;;
79664;SDS011;69132;44.014;20.918;2023-05-10T09:35:15;6.47;;;4.18;;
79664;SDS011;69132;44.014;20.918;2023-05-10T09:37:45;2.75;;;2.40;;
79664;SDS011;69132;44.014;20.918;2023-05-10T09:40:16;4.35;;;3.53;;
79664;SDS011;69132;44.014;20.918;2023-05-10T09:42:52;4.28;;;3.85;;
79664;SDS011;69132;44.014;20.918;2023-05-10T09:45:19;6.07;;;3.67;;
79664;SDS011;69132;44.014;20.918;2023-05-10T09:47:45;7.03;;;5.00;;
79664;SDS011;69132;44.014;20.918;2023-05-10T09:50:12;4.53;;;3.67;;
79664;SDS011;69132;44.014;20.918;2023-05-10T09:52:51;6.90;;;4.03;;
79664;SDS011;69132;44.014;20.918;2023-05-10T09:55:18;5.57;;;3.80;;
79664;SDS011;69132;44.014;20.918;2023-05-10T09:57:45;5.57;;;3.80;;
79664;SDS011;69132;44.014;20.918;2023-05-10T10:00:16;3.80;;;3.38;;
79664;SDS011;69132;44.014;20.918;2023-05-10T10:02:44;5.57;;;3.10;;
79664;SDS011;69132;44.014;20.918;2023-05-10T10:05:11;3.45;;;3.15;;
79664;SDS011;69132;44.014;20.918;2023-05-10T10:07:37;5.15;;;3.67;;
79664;SDS011;69132;44.014;20.918;2023-05-10T10:10:09;4.00;;;3.05;;
79664;SDS011;69132;44.014;20.918;2023-05-10T10:12:38;3.17;;;2.63;;
79664;SDS011;69132;44.014;20.918;2023-05-10T10:15:05;4.75;;;3.28;;
79664;SDS011;69132;44.014;20.918;2023-05-10T10:17:34;4.30;;;2.90;;
79664;SDS011;69132;44.014;20.918;2023-05-10T10:20:03;3.90;;;3.13;;
79664;SDS011;69132;44.014;20.918;2023-05-10T10:22:29;4.20;;;2.97;;
79664;SDS011;69132;44.014;20.918;2023-05-10T10:24:55;3.47;;;2.80;;
79664;SDS011;69132;44.014;20.918;2023-05-10T10:27:32;5.82;;;3.30;;
79664;SDS011;69132;44.014;20.918;2023-05-10T10:35:32;4.40;;;3.65;;
79664;SDS011;69132;44.014;20.918;2023-05-10T10:38:00;6.03;;;3.50;;
79664;SDS011;69132;44.014;20.918;2023-05-10T10:40:30;3.15;;;2.85;;
79664;SDS011;69132;44.014;20.918;2023-05-10T10:42:57;4.07;;;3.47;;
79664;SDS011;69132;44.014;20.918;2023-05-10T10:45:23;4.30;;;3.22;;
79664;SDS011;69132;44.014;20.918;2023-05-10T10:48:32;4.22;;;3.42;;
79664;SDS011;69132;44.014;20.918;2023-05-10T10:50:45;3.83;;;3.42;;
79664;SDS011;69132;44.014;20.918;2023-05-10T10:53:11;5.88;;;3.50;;
79664;SDS011;69132;44.014;20.918;2023-05-10T10:55:48;3.53;;;3.10;;
79664;SDS011;69132;44.014;20.918;2023-05-10T10:58:30;3.10;;;2.80;;
79664;SDS011;69132;44.014;20.918;2023-05-10T11:01:15;3.90;;;3.35;;
79664;SDS011;69132;44.014;20.918;2023-05-10T11:06:31;7.68;;;4.30;;
79664;SDS011;69132;44.014;20.918;2023-05-10T11:08:58;4.43;;;3.50;;
79664;SDS011;69132;44.014;20.918;2023-05-10T11:11:26;4.82;;;3.67;;
79664;SDS011;69132;44.014;20.918;2023-05-10T11:13:53;5.82;;;3.20;;
79664;SDS011;69132;44.014;20.918;2023-05-10T11:16:20;3.60;;;3.22;;
79664;SDS011;69132;44.014;20.918;2023-05-10T11:21:20;5.10;;;3.83;;
79664;SDS011;69132;44.014;20.918;2023-05-10T11:26:13;7.60;;;4.57;;
79664;SDS011;69132;44.014;20.918;2023-05-10T11:28:45;3.13;;;2.83;;
79664;SDS011;69132;44.014;20.918;2023-05-10T11:31:15;4.72;;;2.90;;
79664;SDS011;69132;44.014;20.918;2023-05-10T11:33:46;3.15;;;2.65;;
79664;SDS011;69132;44.014;20.918;2023-05-10T11:36:13;3.95;;;3.05;;
79664;SDS011;69132;44.014;20.918;2023-05-10T11:38:40;3.40;;;2.80;;
79664;SDS011;69132;44.014;20.918;2023-05-10T11:41:07;4.65;;;3.20;;
79664;SDS011;69132;44.014;20.918;2023-05-10T11:43:34;3.45;;;2.83;;
79664;SDS011;69132;44.014;20.918;2023-05-10T11:46:02;3.17;;;2.80;;
79664;SDS011;69132;44.014;20.918;2023-05-10T11:48:31;5.15;;;3.45;;
79664;SDS011;69132;44.014;20.918;2023-05-10T11:50:57;4.00;;;3.00;;
79664;SDS011;69132;44.014;20.918;2023-05-10T11:53:27;4.43;;;2.80;;
79664;SDS011;69132;44.014;20.918;2023-05-10T11:55:53;5.57;;;3.13;;
79664;SDS011;69132;44.014;20.918;2023-05-10T11:58:19;6.25;;;3.97;;
79664;SDS011;69132;44.014;20.918;2023-05-10T12:00:47;3.83;;;2.70;;
79664;SDS011;69132;44.014;20.918;2023-05-10T12:03:13;5.28;;;3.13;;
79664;SDS011;69132;44.014;20.918;2023-05-10T12:05:40;3.60;;;2.50;;
79664;SDS011;69132;44.014;20.918;2023-05-10T12:08:19;3.03;;;2.67;;
79664;SDS011;69132;44.014;20.918;2023-05-10T12:10:45;3.08;;;2.60;;
79664;SDS011;69132;44.014;20.918;2023-05-10T12:13:12;7.70;;;4.22;;
79664;SDS011;69132;44.014;20.918;2023-05-10T12:15:43;3.42;;;2.55;;
79664;SDS011;69132;44.014;20.918;2023-05-10T12:18:13;4.63;;;2.63;;
79664;SDS011;69132;44.014;20.918;2023-05-10T12:20:40;3.42;;;2.55;;
79664;SDS011;69132;44.014;20.918;2023-05-10T12:23:08;2.88;;;2.65;;
79664;SDS011;69132;44.014;20.918;2023-05-10T12:25:35;8.40;;;5.15;;
79664;SDS011;69132;44.014;20.918;2023-05-10T12:28:08;7.15;;;3.40;;
79664;SDS011;69132;44.014;20.918;2023-05-10T12:30:35;4.43;;;3.53;;
79664;SDS011;69132;44.014;20.918;2023-05-10T12:33:02;4.88;;;3.30;;
79664;SDS011;69132;44.014;20.918;2023-05-10T12:35:33;4.13;;;3.45;;
79664;SDS011;69132;44.014;20.918;2023-05-10T12:38:27;4.50;;;3.42;;
79664;SDS011;69132;44.014;20.918;2023-05-10T12:40:57;5.97;;;3.45;;
79664;SDS011;69132;44.014;20.918;2023-05-10T12:43:24;4.72;;;3.53;;
79664;SDS011;69132;44.014;20.918;2023-05-10T12:45:51;4.80;;;3.47;;
79664;SDS011;69132;44.014;20.918;2023-05-10T12:48:25;3.90;;;3.33;;
79664;SDS011;69132;44.014;20.918;2023-05-10T12:50:54;6.50;;;3.60;;
79664;SDS011;69132;44.014;20.918;2023-05-10T12:53:20;4.32;;;2.88;;
79664;SDS011;69132;44.014;20.918;2023-05-10T12:55:47;5.15;;;3.60;;
79664;SDS011;69132;44.014;20.918;2023-05-10T12:58:15;4.30;;;3.00;;
79664;SDS011;69132;44.014;20.918;2023-05-10T13:00:41;4.85;;;3.15;;
79664;SDS011;69132;44.014;20.918;2023-05-10T13:03:08;4.13;;;2.78;;
79664;SDS011;69132;44.014;20.918;2023-05-10T13:05:35;6.10;;;3.72;;
79664;SDS011;69132;44.014;20.918;2023-05-10T13:08:03;8.93;;;5.10;;
79664;SDS011;69132;44.014;20.918;2023-05-10T13:10:29;4.45;;;3.45;;
79664;SDS011;69132;44.014;20.918;2023-05-10T13:12:56;2.85;;;2.45;;
79664;SDS011;69132;44.014;20.918;2023-05-10T13:15:22;2.97;;;2.67;;
79664;SDS011;69132;44.014;20.918;2023-05-10T13:17:48;3.90;;;2.90;;
79664;SDS011;69132;44.014;20.918;2023-05-10T13:20:18;3.42;;;3.10;;
79664;SDS011;69132;44.014;20.918;2023-05-10T13:22:44;4.80;;;3.20;;
79664;SDS011;69132;44.014;20.918;2023-05-10T13:25:10;3.17;;;2.80;;
79664;SDS011;69132;44.014;20.918;2023-05-10T13:27:38;5.50;;;2.95;;
79664;SDS011;69132;44.014;20.918;2023-05-10T13:30:05;3.47;;;2.97;;
79664;SDS011;69132;44.014;20.918;2023-05-10T13:32:33;4.95;;;4.07;;
79664;SDS011;69132;44.014;20.918;2023-05-10T13:34:59;5.93;;;3.75;;
79664;SDS011;69132;44.014;20.918;2023-05-10T13:37:25;7.00;;;4.38;;
79664;SDS011;69132;44.014;20.918;2023-05-10T13:39:51;5.57;;;4.43;;
79664;SDS011;69132;44.014;20.918;2023-05-10T13:42:17;5.55;;;4.63;;
79664;SDS011;69132;44.014;20.918;2023-05-10T13:44:44;5.05;;;3.55;;
79664;SDS011;69132;44.014;20.918;2023-05-10T13:47:11;5.85;;;3.67;;
79664;SDS011;69132;44.014;20.918;2023-05-10T13:49:37;5.28;;;3.80;;
79664;SDS011;69132;44.014;20.918;2023-05-10T13:52:03;4.30;;;3.70;;
79664;SDS011;69132;44.014;20.918;2023-05-10T13:54:37;4.40;;;3.33;;
79664;SDS011;69132;44.014;20.918;2023-05-10T13:57:04;4.88;;;3.55;;
79664;SDS011;69132;44.014;20.918;2023-05-10T13:59:33;4.20;;;3.70;;
79664;SDS011;69132;44.014;20.918;2023-05-10T14:01:59;6.43;;;4.72;;
79664;SDS011;69132;44.014;20.918;2023-05-10T14:04:29;6.40;;;3.90;;
79664;SDS011;69132;44.014;20.918;2023-05-10T14:07:02;4.20;;;3.72;;
79664;SDS011;69132;44.014;20.918;2023-05-10T14:09:31;4.18;;;3.47;;
79664;SDS011;69132;44.014;20.918;2023-05-10T14:11:57;6.05;;;3.60;;
79664;SDS011;69132;44.014;20.918;2023-05-10T14:14:23;3.85;;;3.00;;
79664;SDS011;69132;44.014;20.918;2023-05-10T14:16:51;4.97;;;3.85;;
79664;SDS011;69132;44.014;20.918;2023-05-10T14:19:20;4.32;;;3.10;;
79664;SDS011;69132;44.014;20.918;2023-05-10T14:21:47;4.65;;;3.53;;
79664;SDS011;69132;44.014;20.918;2023-05-10T14:24:15;5.07;;;3.22;;
79664;SDS011;69132;44.014;20.918;2023-05-10T14:26:41;4.55;;;3.22;;
79664;SDS011;69132;44.014;20.918;2023-05-10T14:29:07;4.85;;;4.25;;
79664;SDS011;69132;44.014;20.918;2023-05-10T14:31:36;3.58;;;3.28;;
79664;SDS011;69132;44.014;20.918;2023-05-10T14:34:02;6.60;;;4.25;;
79664;SDS011;69132;44.014;20.918;2023-05-10T14:36:30;5.32;;;3.90;;
79664;SDS011;69132;44.014;20.918;2023-05-10T14:38:56;5.28;;;3.25;;
79664;SDS011;69132;44.014;20.918;2023-05-10T14:41:22;6.18;;;3.55;;
79664;SDS011;69132;44.014;20.918;2023-05-10T14:43:50;3.38;;;3.08;;
79664;SDS011;69132;44.014;20.918;2023-05-10T14:46:16;7.82;;;4.55;;
79664;SDS011;69132;44.014;20.918;2023-05-10T14:48:46;6.60;;;3.70;;
79664;SDS011;69132;44.014;20.918;2023-05-10T14:51:12;4.03;;;3.55;;
79664;SDS011;69132;44.014;20.918;2023-05-10T14:53:40;5.82;;;4.07;;
79664;SDS011;69132;44.014;20.918;2023-05-10T14:56:06;7.70;;;4.53;;
79664;SDS011;69132;44.014;20.918;2023-05-10T14:58:32;4.25;;;3.80;;
79664;SDS011;69132;44.014;20.918;2023-05-10T15:00:58;10.98;;;4.68;;
79664;SDS011;69132;44.014;20.918;2023-05-10T15:03:27;6.18;;;4.28;;
79664;SDS011;69132;44.014;20.918;2023-05-10T15:05:53;4.28;;;3.88;;
79664;SDS011;69132;44.014;20.918;2023-05-10T15:08:21;5.40;;;3.75;;
79664;SDS011;69132;44.014;20.918;2023-05-10T15:10:47;4.15;;;3.75;;
79664;SDS011;69132;44.014;20.918;2023-05-10T15:13:16;6.78;;;4.28;;
79664;SDS011;69132;44.014;20.918;2023-05-10T15:15:42;4.43;;;3.90;;
79664;SDS011;69132;44.014;20.918;2023-05-10T15:18:08;5.28;;;4.07;;